sensor_id;sensor_type;location;lat;lon;timestamp;temperature;humidity
20057;DHT22;10189;49.546;7.906;2022-11-20T00:01:10;1.20;99.90
20057;DHT22;10189;49.546;7.906;2022-11-20T00:03:42;1.30;99.90
20057;DHT22;10189;49.546;7.906;2022-11-20T00:06:12;1.30;99.90
20057;DHT22;10189;49.546;7.906;2022-11-20T00:08:40;1.40;99.90
20057;DHT22;10189;49.546;7.906;2022-11-20T00:11:12;1.40;99.90
20057;DHT22;10189;49.546;7.906;2022-11-20T00:13:40;1.40;99.90
20057;DHT22;10189;49.546;7.906;2022-11-20T00:16:08;1.50;99.90
20057;DHT22;10189;49.546;7.906;2022-11-20T00:18:36;1.40;99.90
20057;DHT22;10189;49.546;7.906;2022-11-20T00:21:09;1.40;99.90
20057;DHT22;10189;49.546;7.906;2022-11-20T00:23:37;1.30;99.90
20057;DHT22;10189;49.546;7.906;2022-11-20T00:26:04;1.30;99.90
20057;DHT22;10189;49.546;7.906;2022-11-20T00:28:34;1.20;99.90
20057;DHT22;10189;49.546;7.906;2022-11-20T00:31:08;1.20;99.90
20057;DHT22;10189;49.546;7.906;2022-11-20T00:33:35;1.20;99.90
20057;DHT22;10189;49.546;7.906;2022-11-20T00:36:03;1.20;99.90
20057;DHT22;10189;49.546;7.906;2022-11-20T00:38:32;1.20;99.90
20057;DHT22;10189;49.546;7.906;2022-11-20T00:40:59;1.30;99.90
20057;DHT22;10189;49.546;7.906;2022-11-20T00:43:27;1.30;99.90
20057;DHT22;10189;49.546;7.906;2022-11-20T00:46:00;1.20;99.90
20057;DHT22;10189;49.546;7.906;2022-11-20T00:48:28;1.20;99.90
20057;DHT22;10189;49.546;7.906;2022-11-20T00:50:54;1.20;99.90
20057;DHT22;10189;49.546;7.906;2022-11-20T00:53:21;1.20;99.90
20057;DHT22;10189;49.546;7.906;2022-11-20T00:55:59;1.20;99.90
20057;DHT22;10189;49.546;7.906;2022-11-20T00:58:33;1.30;99.90
20057;DHT22;10189;49.546;7.906;2022-11-20T01:01:05;1.30;99.90
20057;DHT22;10189;49.546;7.906;2022-11-20T01:03:37;1.20;99.90
20057;DHT22;10189;49.546;7.906;2022-11-20T01:06:18;1.30;99.90
20057;DHT22;10189;49.546;7.906;2022-11-20T01:08:45;1.30;99.90
20057;DHT22;10189;49.546;7.906;2022-11-20T01:11:17;1.50;99.90
20057;DHT22;10189;49.546;7.906;2022-11-20T01:13:46;1.50;99.90
20057;DHT22;10189;49.546;7.906;2022-11-20T01:16:19;1.60;99.90
20057;DHT22;10189;49.546;7.906;2022-11-20T01:18:58;1.60;99.90
20057;DHT22;10189;49.546;7.906;2022-11-20T01:21:30;1.60;99.90
20057;DHT22;10189;49.546;7.906;2022-11-20T01:23:58;1.60;99.90
20057;DHT22;10189;49.546;7.906;2022-11-20T01:26:31;1.60;99.90
20057;DHT22;10189;49.546;7.906;2022-11-20T01:28:59;1.50;99.90
20057;DHT22;10189;49.546;7.906;2022-11-20T01:31:31;1.50;99.90
20057;DHT22;10189;49.546;7.906;2022-11-20T01:34:07;1.50;99.90
20057;DHT22;10189;49.546;7.906;2022-11-20T01:36:37;1.60;99.90
20057;DHT22;10189;49.546;7.906;2022-11-20T01:39:06;1.50;99.90
20057;DHT22;10189;49.546;7.906;2022-11-20T01:41:35;1.50;99.90
20057;DHT22;10189;49.546;7.906;2022-11-20T01:44:22;1.60;99.90
20057;DHT22;10189;49.546;7.906;2022-11-20T01:47:21;1.70;99.90
20057;DHT22;10189;49.546;7.906;2022-11-20T01:50:05;1.60;99.90
20057;DHT22;10189;49.546;7.906;2022-11-20T01:52:41;1.60;99.90
20057;DHT22;10189;49.546;7.906;2022-11-20T01:55:14;1.50;99.90
20057;DHT22;10189;49.546;7.906;2022-11-20T01:57:45;1.40;99.90
20057;DHT22;10189;49.546;7.906;2022-11-20T02:00:15;1.50;99.90
20057;DHT22;10189;49.546;7.906;2022-11-20T02:03:05;1.60;99.90
20057;DHT22;10189;49.546;7.906;2022-11-20T02:05:49;1.60;99.90
20057;DHT22;10189;49.546;7.906;2022-11-20T02:08:19;1.70;99.90
20057;DHT22;10189;49.546;7.906;2022-11-20T02:10:47;1.70;99.90
20057;DHT22;10189;49.546;7.906;2022-11-20T02:13:13;1.80;99.90
20057;DHT22;10189;49.546;7.906;2022-11-20T02:15:57;1.80;99.90
20057;DHT22;10189;49.546;7.906;2022-11-20T02:18:23;1.80;99.90
20057;DHT22;10189;49.546;7.906;2022-11-20T02:20:53;1.90;99.90
20057;DHT22;10189;49.546;7.906;2022-11-20T02:23:30;1.70;99.90
20057;DHT22;10189;49.546;7.906;2022-11-20T02:25:58;1.80;99.90
20057;DHT22;10189;49.546;7.906;2022-11-20T02:28:28;1.80;99.90
20057;DHT22;10189;49.546;7.906;2022-11-20T02:30:54;1.90;99.90
20057;DHT22;10189;49.546;7.906;2022-11-20T02:33:20;1.90;99.90
20057;DHT22;10189;49.546;7.906;2022-11-20T02:35:46;1.90;99.90
20057;DHT22;10189;49.546;7.906;2022-11-20T02:38:13;1.90;99.90
20057;DHT22;10189;49.546;7.906;2022-11-20T02:40:40;2.00;99.90
20057;DHT22;10189;49.546;7.906;2022-11-20T02:43:06;2.00;99.90
20057;DHT22;10189;49.546;7.906;2022-11-20T02:45:33;2.00;99.90
20057;DHT22;10189;49.546;7.906;2022-11-20T02:47:59;2.00;99.90
20057;DHT22;10189;49.546;7.906;2022-11-20T02:50:25;2.00;99.90
20057;DHT22;10189;49.546;7.906;2022-11-20T02:52:51;2.10;99.90
20057;DHT22;10189;49.546;7.906;2022-11-20T02:55:17;2.00;99.90
20057;DHT22;10189;49.546;7.906;2022-11-20T02:57:43;2.00;99.90
20057;DHT22;10189;49.546;7.906;2022-11-20T03:00:09;2.00;99.90
20057;DHT22;10189;49.546;7.906;2022-11-20T03:02:35;1.90;99.90
20057;DHT22;10189;49.546;7.906;2022-11-20T03:05:02;1.90;99.90
20057;DHT22;10189;49.546;7.906;2022-11-20T03:07:28;1.90;99.90
20057;DHT22;10189;49.546;7.906;2022-11-20T03:09:54;2.00;99.90
20057;DHT22;10189;49.546;7.906;2022-11-20T03:12:20;2.00;99.90
20057;DHT22;10189;49.546;7.906;2022-11-20T03:14:46;2.10;99.90
20057;DHT22;10189;49.546;7.906;2022-11-20T03:17:11;2.10;99.90
20057;DHT22;10189;49.546;7.906;2022-11-20T03:19:37;2.20;99.90
20057;DHT22;10189;49.546;7.906;2022-11-20T03:22:03;2.30;99.90
20057;DHT22;10189;49.546;7.906;2022-11-20T03:24:29;2.20;99.90
20057;DHT22;10189;49.546;7.906;2022-11-20T03:26:55;2.20;99.90
20057;DHT22;10189;49.546;7.906;2022-11-20T03:29:21;2.20;99.90
20057;DHT22;10189;49.546;7.906;2022-11-20T03:31:46;2.20;99.90
20057;DHT22;10189;49.546;7.906;2022-11-20T03:34:12;2.20;99.90
20057;DHT22;10189;49.546;7.906;2022-11-20T03:36:40;2.10;99.90
20057;DHT22;10189;49.546;7.906;2022-11-20T03:39:08;2.10;99.90
20057;DHT22;10189;49.546;7.906;2022-11-20T03:41:39;2.20;99.90
20057;DHT22;10189;49.546;7.906;2022-11-20T03:44:08;2.20;99.90
20057;DHT22;10189;49.546;7.906;2022-11-20T03:46:35;2.00;99.90
20057;DHT22;10189;49.546;7.906;2022-11-20T03:49:02;1.90;99.90
20057;DHT22;10189;49.546;7.906;2022-11-20T03:51:31;1.90;99.90
20057;DHT22;10189;49.546;7.906;2022-11-20T03:54:00;1.90;99.90
20057;DHT22;10189;49.546;7.906;2022-11-20T03:56:30;1.90;99.90
20057;DHT22;10189;49.546;7.906;2022-11-20T03:58:59;1.90;99.90
20057;DHT22;10189;49.546;7.906;2022-11-20T04:01:27;2.00;99.90
20057;DHT22;10189;49.546;7.906;2022-11-20T04:03:56;2.00;99.90
20057;DHT22;10189;49.546;7.906;2022-11-20T04:06:27;2.00;99.90
20057;DHT22;10189;49.546;7.906;2022-11-20T04:08:59;2.10;99.90
20057;DHT22;10189;49.546;7.906;2022-11-20T04:11:30;2.00;99.90
20057;DHT22;10189;49.546;7.906;2022-11-20T04:14:00;2.00;99.90
20057;DHT22;10189;49.546;7.906;2022-11-20T04:16:30;2.00;99.90
20057;DHT22;10189;49.546;7.906;2022-11-20T04:19:00;2.10;99.90
20057;DHT22;10189;49.546;7.906;2022-11-20T04:21:27;2.20;99.90
20057;DHT22;10189;49.546;7.906;2022-11-20T04:23:54;2.30;99.90
20057;DHT22;10189;49.546;7.906;2022-11-20T04:26:21;2.30;99.90
20057;DHT22;10189;49.546;7.906;2022-11-20T04:28:49;2.40;99.90
20057;DHT22;10189;49.546;7.906;2022-11-20T04:31:18;2.50;99.90
20057;DHT22;10189;49.546;7.906;2022-11-20T04:33:45;2.50;99.90
20057;DHT22;10189;49.546;7.906;2022-11-20T04:36:20;2.50;99.90
20057;DHT22;10189;49.546;7.906;2022-11-20T04:38:53;2.60;99.90
20057;DHT22;10189;49.546;7.906;2022-11-20T04:41:22;2.70;99.90
20057;DHT22;10189;49.546;7.906;2022-11-20T04:43:55;2.70;99.90
20057;DHT22;10189;49.546;7.906;2022-11-20T04:46:26;2.90;99.90
20057;DHT22;10189;49.546;7.906;2022-11-20T04:48:53;2.90;99.90
20057;DHT22;10189;49.546;7.906;2022-11-20T04:51:20;2.80;99.90
20057;DHT22;10189;49.546;7.906;2022-11-20T04:53:46;2.90;99.90
20057;DHT22;10189;49.546;7.906;2022-11-20T04:56:13;2.90;99.90
20057;DHT22;10189;49.546;7.906;2022-11-20T04:58:40;2.90;99.90
20057;DHT22;10189;49.546;7.906;2022-11-20T05:01:11;3.00;99.90
20057;DHT22;10189;49.546;7.906;2022-11-20T05:03:43;3.00;99.90
20057;DHT22;10189;49.546;7.906;2022-11-20T05:06:12;3.10;99.90
20057;DHT22;10189;49.546;7.906;2022-11-20T05:08:40;3.10;99.90
20057;DHT22;10189;49.546;7.906;2022-11-20T05:11:18;3.20;99.90
20057;DHT22;10189;49.546;7.906;2022-11-20T05:13:45;3.30;99.90
20057;DHT22;10189;49.546;7.906;2022-11-20T05:16:13;3.30;99.90
20057;DHT22;10189;49.546;7.906;2022-11-20T05:18:43;3.30;99.90
20057;DHT22;10189;49.546;7.906;2022-11-20T05:21:11;3.40;99.90
20057;DHT22;10189;49.546;7.906;2022-11-20T05:23:38;3.40;99.90
20057;DHT22;10189;49.546;7.906;2022-11-20T05:26:05;3.40;99.90
20057;DHT22;10189;49.546;7.906;2022-11-20T05:28:33;3.40;99.90
20057;DHT22;10189;49.546;7.906;2022-11-20T05:31:07;3.50;99.90
20057;DHT22;10189;49.546;7.906;2022-11-20T05:33:36;3.60;99.90
20057;DHT22;10189;49.546;7.906;2022-11-20T05:36:05;3.60;99.90
20057;DHT22;10189;49.546;7.906;2022-11-20T05:38:32;3.60;99.90
20057;DHT22;10189;49.546;7.906;2022-11-20T05:41:06;3.70;99.90
20057;DHT22;10189;49.546;7.906;2022-11-20T05:43:38;3.60;99.90
20057;DHT22;10189;49.546;7.906;2022-11-20T05:46:07;3.80;99.90
20057;DHT22;10189;49.546;7.906;2022-11-20T05:48:36;3.80;99.90
20057;DHT22;10189;49.546;7.906;2022-11-20T05:51:04;3.90;99.90
20057;DHT22;10189;49.546;7.906;2022-11-20T05:53:33;4.00;99.90
20057;DHT22;10189;49.546;7.906;2022-11-20T05:56:01;4.10;99.90
20057;DHT22;10189;49.546;7.906;2022-11-20T05:58:32;4.20;99.90
20057;DHT22;10189;49.546;7.906;2022-11-20T06:03:41;4.40;99.90
20057;DHT22;10189;49.546;7.906;2022-11-20T06:06:09;4.50;99.90
20057;DHT22;10189;49.546;7.906;2022-11-20T06:08:34;4.50;99.90
20057;DHT22;10189;49.546;7.906;2022-11-20T06:11:05;4.60;99.90
20057;DHT22;10189;49.546;7.906;2022-11-20T06:13:32;4.60;99.90
20057;DHT22;10189;49.546;7.906;2022-11-20T06:15:59;4.70;99.90
20057;DHT22;10189;49.546;7.906;2022-11-20T06:18:27;4.70;99.90
20057;DHT22;10189;49.546;7.906;2022-11-20T06:21:25;4.80;99.90
20057;DHT22;10189;49.546;7.906;2022-11-20T06:23:51;4.80;99.90
20057;DHT22;10189;49.546;7.906;2022-11-20T06:26:23;4.80;99.90
20057;DHT22;10189;49.546;7.906;2022-11-20T06:28:51;4.80;99.90
20057;DHT22;10189;49.546;7.906;2022-11-20T06:31:20;4.80;99.90
20057;DHT22;10189;49.546;7.906;2022-11-20T06:33:48;4.80;99.90
20057;DHT22;10189;49.546;7.906;2022-11-20T06:36:15;4.90;99.90
20057;DHT22;10189;49.546;7.906;2022-11-20T06:38:44;4.90;99.90
20057;DHT22;10189;49.546;7.906;2022-11-20T06:41:14;4.90;99.90
20057;DHT22;10189;49.546;7.906;2022-11-20T06:43:44;4.90;99.90
20057;DHT22;10189;49.546;7.906;2022-11-20T06:46:12;4.90;99.90
20057;DHT22;10189;49.546;7.906;2022-11-20T06:48:40;5.00;99.90
20057;DHT22;10189;49.546;7.906;2022-11-20T06:51:07;5.00;99.90
20057;DHT22;10189;49.546;7.906;2022-11-20T06:53:34;4.90;99.90
20057;DHT22;10189;49.546;7.906;2022-11-20T06:56:00;4.90;99.90
20057;DHT22;10189;49.546;7.906;2022-11-20T06:58:28;4.90;99.90
20057;DHT22;10189;49.546;7.906;2022-11-20T07:00:59;4.90;99.90
20057;DHT22;10189;49.546;7.906;2022-11-20T07:03:25;4.90;99.90
20057;DHT22;10189;49.546;7.906;2022-11-20T07:05:53;4.90;99.90
20057;DHT22;10189;49.546;7.906;2022-11-20T07:08:20;4.90;99.90
20057;DHT22;10189;49.546;7.906;2022-11-20T07:10:46;4.90;99.90
20057;DHT22;10189;49.546;7.906;2022-11-20T07:13:12;5.00;99.90
20057;DHT22;10189;49.546;7.906;2022-11-20T07:15:38;5.00;99.90
20057;DHT22;10189;49.546;7.906;2022-11-20T07:18:03;5.10;99.90
20057;DHT22;10189;49.546;7.906;2022-11-20T07:20:30;5.10;99.90
20057;DHT22;10189;49.546;7.906;2022-11-20T07:22:56;5.10;99.90
20057;DHT22;10189;49.546;7.906;2022-11-20T07:25:24;5.20;99.90
20057;DHT22;10189;49.546;7.906;2022-11-20T07:27:51;5.20;99.90
20057;DHT22;10189;49.546;7.906;2022-11-20T07:30:17;5.10;99.90
20057;DHT22;10189;49.546;7.906;2022-11-20T07:32:47;5.10;99.90
20057;DHT22;10189;49.546;7.906;2022-11-20T07:35:16;5.20;99.90
20057;DHT22;10189;49.546;7.906;2022-11-20T07:37:42;5.20;99.90
20057;DHT22;10189;49.546;7.906;2022-11-20T07:40:08;5.20;99.90
20057;DHT22;10189;49.546;7.906;2022-11-20T07:42:34;5.20;99.90
20057;DHT22;10189;49.546;7.906;2022-11-20T07:45:01;5.20;99.90
20057;DHT22;10189;49.546;7.906;2022-11-20T07:47:26;5.30;99.90
20057;DHT22;10189;49.546;7.906;2022-11-20T07:49:52;5.30;99.90
20057;DHT22;10189;49.546;7.906;2022-11-20T07:52:18;5.30;99.90
20057;DHT22;10189;49.546;7.906;2022-11-20T07:54:44;5.30;99.90
20057;DHT22;10189;49.546;7.906;2022-11-20T07:57:10;5.40;99.90
20057;DHT22;10189;49.546;7.906;2022-11-20T07:59:36;5.40;99.90
20057;DHT22;10189;49.546;7.906;2022-11-20T08:02:02;5.40;99.90
20057;DHT22;10189;49.546;7.906;2022-11-20T08:04:28;5.40;99.90
20057;DHT22;10189;49.546;7.906;2022-11-20T08:06:54;5.40;99.90
20057;DHT22;10189;49.546;7.906;2022-11-20T08:09:19;5.40;99.90
20057;DHT22;10189;49.546;7.906;2022-11-20T08:11:45;5.40;99.90
20057;DHT22;10189;49.546;7.906;2022-11-20T08:14:30;5.40;99.90
20057;DHT22;10189;49.546;7.906;2022-11-20T08:16:56;5.50;99.90
20057;DHT22;10189;49.546;7.906;2022-11-20T08:19:21;5.50;99.90
20057;DHT22;10189;49.546;7.906;2022-11-20T08:21:47;5.50;99.90
20057;DHT22;10189;49.546;7.906;2022-11-20T08:24:13;5.50;99.90
20057;DHT22;10189;49.546;7.906;2022-11-20T08:26:40;5.50;99.90
20057;DHT22;10189;49.546;7.906;2022-11-20T08:29:06;5.50;99.90
20057;DHT22;10189;49.546;7.906;2022-11-20T08:31:33;5.50;99.90
20057;DHT22;10189;49.546;7.906;2022-11-20T08:33:59;5.60;99.90
20057;DHT22;10189;49.546;7.906;2022-11-20T08:36:24;5.70;99.90
20057;DHT22;10189;49.546;7.906;2022-11-20T08:38:53;5.70;99.90
20057;DHT22;10189;49.546;7.906;2022-11-20T08:41:21;5.80;99.90
20057;DHT22;10189;49.546;7.906;2022-11-20T08:43:58;5.80;99.90
20057;DHT22;10189;49.546;7.906;2022-11-20T08:46:27;5.80;99.90
20057;DHT22;10189;49.546;7.906;2022-11-20T08:48:56;5.80;99.90
20057;DHT22;10189;49.546;7.906;2022-11-20T08:51:22;5.80;99.90
20057;DHT22;10189;49.546;7.906;2022-11-20T08:53:48;5.90;99.90
20057;DHT22;10189;49.546;7.906;2022-11-20T08:56:14;5.90;99.90
20057;DHT22;10189;49.546;7.906;2022-11-20T08:58:40;5.90;99.90
20057;DHT22;10189;49.546;7.906;2022-11-20T09:01:06;5.90;99.90
20057;DHT22;10189;49.546;7.906;2022-11-20T09:03:32;6.00;99.90
20057;DHT22;10189;49.546;7.906;2022-11-20T09:06:00;6.00;99.90
20057;DHT22;10189;49.546;7.906;2022-11-20T09:08:28;6.10;99.90
20057;DHT22;10189;49.546;7.906;2022-11-20T09:10:56;6.10;99.90
20057;DHT22;10189;49.546;7.906;2022-11-20T09:13:24;6.10;99.90
20057;DHT22;10189;49.546;7.906;2022-11-20T09:15:55;6.20;99.90
20057;DHT22;10189;49.546;7.906;2022-11-20T09:18:23;6.20;99.90
20057;DHT22;10189;49.546;7.906;2022-11-20T09:20:50;6.10;99.90
20057;DHT22;10189;49.546;7.906;2022-11-20T09:23:16;6.10;99.90
20057;DHT22;10189;49.546;7.906;2022-11-20T09:25:43;6.00;99.90
20057;DHT22;10189;49.546;7.906;2022-11-20T09:28:09;6.00;99.90
20057;DHT22;10189;49.546;7.906;2022-11-20T09:30:35;5.90;99.90
20057;DHT22;10189;49.546;7.906;2022-11-20T09:33:02;6.00;99.90
20057;DHT22;10189;49.546;7.906;2022-11-20T09:35:30;6.00;99.90
20057;DHT22;10189;49.546;7.906;2022-11-20T09:37:55;6.10;99.90
20057;DHT22;10189;49.546;7.906;2022-11-20T09:40:26;6.20;99.90
20057;DHT22;10189;49.546;7.906;2022-11-20T09:43:04;6.20;99.80
20057;DHT22;10189;49.546;7.906;2022-11-20T09:52:19;6.30;99.00
20057;DHT22;10189;49.546;7.906;2022-11-20T09:54:53;6.40;98.20
20057;DHT22;10189;49.546;7.906;2022-11-20T09:57:29;6.30;95.80
20057;DHT22;10189;49.546;7.906;2022-11-20T10:00:03;6.40;96.00
20057;DHT22;10189;49.546;7.906;2022-11-20T10:05:15;6.50;95.60
20057;DHT22;10189;49.546;7.906;2022-11-20T10:08:04;6.50;95.10
20057;DHT22;10189;49.546;7.906;2022-11-20T10:14:18;6.80;94.60
20057;DHT22;10189;49.546;7.906;2022-11-20T10:16:59;6.90;95.10
20057;DHT22;10189;49.546;7.906;2022-11-20T10:31:17;6.70;94.80
20057;DHT22;10189;49.546;7.906;2022-11-20T10:33:54;6.70;94.40
20057;DHT22;10189;49.546;7.906;2022-11-20T10:36:30;6.80;94.20
20057;DHT22;10189;49.546;7.906;2022-11-20T10:41:55;7.00;93.90
20057;DHT22;10189;49.546;7.906;2022-11-20T10:44:27;7.10;93.00
20057;DHT22;10189;49.546;7.906;2022-11-20T10:47:15;7.20;91.60
20057;DHT22;10189;49.546;7.906;2022-11-20T10:49:48;7.30;92.20
20057;DHT22;10189;49.546;7.906;2022-11-20T10:52:48;7.20;89.40
20057;DHT22;10189;49.546;7.906;2022-11-20T10:55:47;7.20;90.90
20057;DHT22;10189;49.546;7.906;2022-11-20T10:58:36;7.10;91.30
20057;DHT22;10189;49.546;7.906;2022-11-20T11:01:17;6.80;90.90
20057;DHT22;10189;49.546;7.906;2022-11-20T11:03:47;6.60;92.80
20057;DHT22;10189;49.546;7.906;2022-11-20T11:06:34;6.50;94.00
20057;DHT22;10189;49.546;7.906;2022-11-20T11:09:12;6.40;94.60
20057;DHT22;10189;49.546;7.906;2022-11-20T11:11:42;6.30;96.30
20057;DHT22;10189;49.546;7.906;2022-11-20T11:14:11;6.20;97.20
20057;DHT22;10189;49.546;7.906;2022-11-20T11:16:57;6.30;98.50
20057;DHT22;10189;49.546;7.906;2022-11-20T11:19:24;6.30;95.50
20057;DHT22;10189;49.546;7.906;2022-11-20T11:21:53;6.30;95.90
20057;DHT22;10189;49.546;7.906;2022-11-20T11:24:26;6.30;94.80
20057;DHT22;10189;49.546;7.906;2022-11-20T11:26:59;6.30;94.40
20057;DHT22;10189;49.546;7.906;2022-11-20T11:29:32;6.20;94.50
20057;DHT22;10189;49.546;7.906;2022-11-20T11:32:17;6.10;95.10
20057;DHT22;10189;49.546;7.906;2022-11-20T11:35:01;6.10;95.70
20057;DHT22;10189;49.546;7.906;2022-11-20T11:37:34;6.10;95.60
20057;DHT22;10189;49.546;7.906;2022-11-20T11:40:05;6.20;93.90
20057;DHT22;10189;49.546;7.906;2022-11-20T11:42:35;6.30;94.80
20057;DHT22;10189;49.546;7.906;2022-11-20T11:45:14;6.40;93.50
20057;DHT22;10189;49.546;7.906;2022-11-20T11:50:14;6.80;90.90
20057;DHT22;10189;49.546;7.906;2022-11-20T11:53:01;7.00;90.40
20057;DHT22;10189;49.546;7.906;2022-11-20T12:07:30;7.70;81.50
20057;DHT22;10189;49.546;7.906;2022-11-20T12:10:00;7.50;81.60
20057;DHT22;10189;49.546;7.906;2022-11-20T12:12:32;7.40;85.00
20057;DHT22;10189;49.546;7.906;2022-11-20T12:15:06;7.40;83.20
20057;DHT22;10189;49.546;7.906;2022-11-20T12:17:36;7.40;82.30
20057;DHT22;10189;49.546;7.906;2022-11-20T12:20:05;7.50;81.10
20057;DHT22;10189;49.546;7.906;2022-11-20T12:23:21;7.40;83.10
20057;DHT22;10189;49.546;7.906;2022-11-20T12:25:36;7.50;80.40
20057;DHT22;10189;49.546;7.906;2022-11-20T12:28:33;7.50;81.60
20057;DHT22;10189;49.546;7.906;2022-11-20T12:31:27;7.40;80.10
20057;DHT22;10189;49.546;7.906;2022-11-20T12:37:01;7.30;80.20
20057;DHT22;10189;49.546;7.906;2022-11-20T12:39:50;7.20;80.60
20057;DHT22;10189;49.546;7.906;2022-11-20T12:42:38;7.20;81.80
20057;DHT22;10189;49.546;7.906;2022-11-20T12:55:23;7.40;83.40
20057;DHT22;10189;49.546;7.906;2022-11-20T12:57:57;7.20;81.10
20057;DHT22;10189;49.546;7.906;2022-11-20T13:00:31;7.00;82.70
20057;DHT22;10189;49.546;7.906;2022-11-20T13:08:28;6.90;83.90
20057;DHT22;10189;49.546;7.906;2022-11-20T13:14:10;7.10;81.90
20057;DHT22;10189;49.546;7.906;2022-11-20T13:17:00;7.00;81.40
20057;DHT22;10189;49.546;7.906;2022-11-20T13:19:35;6.90;81.90
20057;DHT22;10189;49.546;7.906;2022-11-20T13:22:01;7.00;81.30
20057;DHT22;10189;49.546;7.906;2022-11-20T13:24:29;7.00;82.00
20057;DHT22;10189;49.546;7.906;2022-11-20T13:29:36;7.00;81.50
20057;DHT22;10189;49.546;7.906;2022-11-20T13:34:39;7.10;82.70
20057;DHT22;10189;49.546;7.906;2022-11-20T13:37:05;7.10;80.90
20057;DHT22;10189;49.546;7.906;2022-11-20T13:39:33;7.20;81.40
20057;DHT22;10189;49.546;7.906;2022-11-20T13:42:20;7.20;80.40
20057;DHT22;10189;49.546;7.906;2022-11-20T13:44:54;7.20;79.50
20057;DHT22;10189;49.546;7.906;2022-11-20T13:47:23;7.20;78.80
20057;DHT22;10189;49.546;7.906;2022-11-20T13:49:55;7.10;77.30
20057;DHT22;10189;49.546;7.906;2022-11-20T13:55:43;6.90;76.90
20057;DHT22;10189;49.546;7.906;2022-11-20T14:01:43;6.80;78.40
20057;DHT22;10189;49.546;7.906;2022-11-20T14:04:18;6.80;77.10
20057;DHT22;10189;49.546;7.906;2022-11-20T14:06:51;6.80;78.00
20057;DHT22;10189;49.546;7.906;2022-11-20T14:09:31;6.70;77.10
20057;DHT22;10189;49.546;7.906;2022-11-20T14:11:59;6.60;76.30
20057;DHT22;10189;49.546;7.906;2022-11-20T14:14:27;6.60;76.80
20057;DHT22;10189;49.546;7.906;2022-11-20T14:17:53;6.60;75.80
20057;DHT22;10189;49.546;7.906;2022-11-20T14:19:55;6.50;77.00
20057;DHT22;10189;49.546;7.906;2022-11-20T14:22:26;6.60;77.30
20057;DHT22;10189;49.546;7.906;2022-11-20T14:27:43;6.60;77.60
20057;DHT22;10189;49.546;7.906;2022-11-20T14:30:16;6.60;76.30
20057;DHT22;10189;49.546;7.906;2022-11-20T14:32:45;6.60;76.90
20057;DHT22;10189;49.546;7.906;2022-11-20T14:35:28;6.50;78.10
20057;DHT22;10189;49.546;7.906;2022-11-20T14:37:56;6.40;77.60
20057;DHT22;10189;49.546;7.906;2022-11-20T14:40:33;6.50;78.30
20057;DHT22;10189;49.546;7.906;2022-11-20T14:43:18;6.40;78.90
20057;DHT22;10189;49.546;7.906;2022-11-20T14:45:59;6.40;79.40
20057;DHT22;10189;49.546;7.906;2022-11-20T14:48:54;6.40;79.10
20057;DHT22;10189;49.546;7.906;2022-11-20T14:51:34;6.40;78.90
20057;DHT22;10189;49.546;7.906;2022-11-20T14:54:19;6.30;79.60
20057;DHT22;10189;49.546;7.906;2022-11-20T14:56:58;6.20;80.10
20057;DHT22;10189;49.546;7.906;2022-11-20T14:59:29;6.10;80.30
20057;DHT22;10189;49.546;7.906;2022-11-20T15:01:59;6.10;80.90
20057;DHT22;10189;49.546;7.906;2022-11-20T15:04:27;6.00;81.00
20057;DHT22;10189;49.546;7.906;2022-11-20T15:06:56;6.00;81.60
20057;DHT22;10189;49.546;7.906;2022-11-20T15:09:23;5.90;81.90
20057;DHT22;10189;49.546;7.906;2022-11-20T15:11:57;5.90;82.50
20057;DHT22;10189;49.546;7.906;2022-11-20T15:14:27;5.90;82.40
20057;DHT22;10189;49.546;7.906;2022-11-20T15:16:54;5.80;82.30
20057;DHT22;10189;49.546;7.906;2022-11-20T15:19:25;5.80;82.30
20057;DHT22;10189;49.546;7.906;2022-11-20T15:21:52;5.80;82.70
20057;DHT22;10189;49.546;7.906;2022-11-20T15:24:19;5.80;83.30
20057;DHT22;10189;49.546;7.906;2022-11-20T15:26:45;5.80;83.90
20057;DHT22;10189;49.546;7.906;2022-11-20T15:29:13;5.80;83.30
20057;DHT22;10189;49.546;7.906;2022-11-20T15:31:44;5.80;83.40
20057;DHT22;10189;49.546;7.906;2022-11-20T15:34:11;5.80;82.60
20057;DHT22;10189;49.546;7.906;2022-11-20T15:36:39;5.80;83.40
20057;DHT22;10189;49.546;7.906;2022-11-20T15:39:05;5.80;83.30
20057;DHT22;10189;49.546;7.906;2022-11-20T15:41:36;5.80;83.30
20057;DHT22;10189;49.546;7.906;2022-11-20T15:44:02;5.80;83.10
20057;DHT22;10189;49.546;7.906;2022-11-20T15:46:31;5.80;82.70
20057;DHT22;10189;49.546;7.906;2022-11-20T15:49:04;5.70;83.40
20057;DHT22;10189;49.546;7.906;2022-11-20T15:51:33;5.70;83.90
20057;DHT22;10189;49.546;7.906;2022-11-20T15:54:05;5.70;83.70
20057;DHT22;10189;49.546;7.906;2022-11-20T15:56:36;5.60;83.90
20057;DHT22;10189;49.546;7.906;2022-11-20T15:59:02;5.60;83.90
20057;DHT22;10189;49.546;7.906;2022-11-20T16:01:29;5.70;83.80
20057;DHT22;10189;49.546;7.906;2022-11-20T16:03:57;5.70;83.10
20057;DHT22;10189;49.546;7.906;2022-11-20T16:06:22;5.60;82.60
20057;DHT22;10189;49.546;7.906;2022-11-20T16:08:48;5.70;83.80
20057;DHT22;10189;49.546;7.906;2022-11-20T16:11:16;5.70;83.10
20057;DHT22;10189;49.546;7.906;2022-11-20T16:13:43;5.60;83.80
20057;DHT22;10189;49.546;7.906;2022-11-20T16:16:31;5.70;82.70
20057;DHT22;10189;49.546;7.906;2022-11-20T16:19:00;5.70;82.90
20057;DHT22;10189;49.546;7.906;2022-11-20T16:21:26;5.70;83.10
20057;DHT22;10189;49.546;7.906;2022-11-20T16:24:04;5.70;84.10
20057;DHT22;10189;49.546;7.906;2022-11-20T16:26:31;5.70;84.50
20057;DHT22;10189;49.546;7.906;2022-11-20T16:28:58;5.70;84.90
20057;DHT22;10189;49.546;7.906;2022-11-20T16:31:25;5.60;85.40
20057;DHT22;10189;49.546;7.906;2022-11-20T16:33:53;5.60;85.30
20057;DHT22;10189;49.546;7.906;2022-11-20T16:36:22;5.50;86.80
20057;DHT22;10189;49.546;7.906;2022-11-20T16:38:54;5.50;86.00
20057;DHT22;10189;49.546;7.906;2022-11-20T16:41:21;5.50;87.10
20057;DHT22;10189;49.546;7.906;2022-11-20T16:43:49;5.50;87.80
20057;DHT22;10189;49.546;7.906;2022-11-20T16:46:18;5.50;87.90
20057;DHT22;10189;49.546;7.906;2022-11-20T16:48:55;5.40;88.00
20057;DHT22;10189;49.546;7.906;2022-11-20T16:51:23;5.40;88.40
20057;DHT22;10189;49.546;7.906;2022-11-20T16:53:51;5.40;88.50
20057;DHT22;10189;49.546;7.906;2022-11-20T16:56:19;5.40;89.10
20057;DHT22;10189;49.546;7.906;2022-11-20T16:58:48;5.30;89.30
20057;DHT22;10189;49.546;7.906;2022-11-20T17:01:17;5.30;89.00
20057;DHT22;10189;49.546;7.906;2022-11-20T17:03:52;5.30;88.50
20057;DHT22;10189;49.546;7.906;2022-11-20T17:06:25;5.30;89.10
20057;DHT22;10189;49.546;7.906;2022-11-20T17:08:56;5.30;88.60
20057;DHT22;10189;49.546;7.906;2022-11-20T17:11:23;5.30;88.90
20057;DHT22;10189;49.546;7.906;2022-11-20T17:13:50;5.30;88.80
20057;DHT22;10189;49.546;7.906;2022-11-20T17:16:21;5.30;88.30
20057;DHT22;10189;49.546;7.906;2022-11-20T17:18:48;5.30;88.20
20057;DHT22;10189;49.546;7.906;2022-11-20T17:21:15;5.30;89.40
20057;DHT22;10189;49.546;7.906;2022-11-20T17:23:43;5.30;89.10
20057;DHT22;10189;49.546;7.906;2022-11-20T17:26:12;5.20;89.20
20057;DHT22;10189;49.546;7.906;2022-11-20T17:28:43;5.30;89.10